Time;durP1;ratioP1;P1;durP2;ratioP2;P2;SDS_P1;SDS_P2;PMS_P1;PMS_P2;Temp;Humidity;BMP_temperature;BMP_pressure;BME280_temperature;BME280_humidity;BME280_pressure;Samples;Min_cycle;Max_cycle;Signal;HPM_P1;HPM_P2
2022/06/09 00:01:11;;;;;;;8.75;4.63;;;20.40;99.90;;;;;;4969759;28;20057;-80
2022/06/09 00:03:48;;;;;;;5.68;4.18;;;20.30;99.90;;;;;;4977888;28;20498;-79
2022/06/09 00:06:15;;;;;;;4.63;4.13;;;20.40;99.90;;;;;;4994777;28;20849;-79
2022/06/09 00:08:47;;;;;;;5.32;4.53;;;20.30;99.90;;;;;;4965697;28;20061;-79
2022/06/09 00:11:21;;;;;;;5.10;4.47;;;20.40;99.90;;;;;;4980117;28;21205;-78
2022/06/09 00:13:47;;;;;;;7.53;5.13;;;20.20;99.90;;;;;;4966525;28;20030;-79
2022/06/09 00:16:15;;;;;;;6.68;5.00;;;20.10;99.90;;;;;;4989514;28;20025;-78
2022/06/09 00:18:47;;;;;;;7.00;5.40;;;19.90;99.90;;;;;;4984873;28;20088;-82
2022/06/09 00:21:15;;;;;;;7.40;5.47;;;19.80;99.90;;;;;;4969377;28;20026;-78
2022/06/09 00:23:47;;;;;;;6.53;5.30;;;19.70;99.90;;;;;;4982481;28;20498;-79
2022/06/09 00:26:17;;;;;;;6.30;5.50;;;19.70;99.90;;;;;;4965606;28;20123;-78
2022/06/09 00:28:59;;;;;;;6.40;5.07;;;19.70;99.90;;;;;;4959419;28;20030;-78
2022/06/09 00:31:25;;;;;;;5.70;5.00;;;19.70;99.90;;;;;;4961826;28;20156;-79
2022/06/09 00:33:50;;;;;;;7.35;5.55;;;19.70;99.90;;;;;;4987718;28;20105;-79
2022/06/09 00:36:17;;;;;;;8.18;5.88;;;19.70;99.90;;;;;;4988722;28;20464;-79
2022/06/09 00:38:48;;;;;;;6.05;5.13;;;19.60;99.90;;;;;;4964797;28;20134;-79
2022/06/09 00:41:18;;;;;;;6.75;5.85;;;19.70;99.90;;;;;;4974283;28;20114;-79
2022/06/09 00:43:45;;;;;;;7.10;5.35;;;19.70;99.90;;;;;;4966600;28;20125;-78
2022/06/09 00:46:19;;;;;;;7.07;5.80;;;19.70;99.90;;;;;;4969488;28;21497;-79
2022/06/09 00:48:58;;;;;;;6.82;5.20;;;19.70;99.90;;;;;;4982258;28;20494;-79
2022/06/09 00:51:54;;;;;;;6.68;5.32;;;19.80;99.90;;;;;;4986331;28;20018;-79
2022/06/09 00:54:35;;;;;;;6.38;5.70;;;19.80;99.90;;;;;;4992317;28;20022;-79
2022/06/09 00:57:25;;;;;;;7.00;5.88;;;19.80;99.90;;;;;;4986781;28;20022;-79
2022/06/09 01:00:06;;;;;;;8.63;5.95;;;19.80;99.90;;;;;;4986362;28;20025;-79
2022/06/09 01:02:36;;;;;;;7.22;6.00;;;19.70;99.90;;;;;;4985739;28;20032;-79
2022/06/09 01:05:06;;;;;;;7.65;6.07;;;19.60;99.90;;;;;;4986718;28;20072;-79
2022/06/09 01:07:36;;;;;;;7.28;5.90;;;19.60;99.90;;;;;;4967723;28;20089;-79
2022/06/09 01:10:04;;;;;;;6.70;5.60;;;19.60;99.90;;;;;;4967497;28;20533;-79
2022/06/09 01:12:47;;;;;;;7.65;6.20;;;19.60;99.90;;;;;;4970579;28;20034;-79
2022/06/09 01:15:19;;;;;;;7.32;5.82;;;19.60;99.90;;;;;;4976162;28;20122;-78
2022/06/09 01:18:11;;;;;;;7.75;5.25;;;19.60;99.90;;;;;;4968266;28;20162;-79
2022/06/09 01:21:09;;;;;;;6.22;5.03;;;19.60;99.90;;;;;;4971844;28;20034;-79
2022/06/09 01:27:11;;;;;;;6.22;5.00;;;19.60;99.90;;;;;;4994026;28;20037;-79
2022/06/09 01:30:06;;;;;;;5.18;3.95;;;19.50;99.90;;;;;;4986102;28;20455;-79
2022/06/09 01:32:42;;;;;;;4.72;3.70;;;19.50;99.90;;;;;;4969768;28;20034;-78
2022/06/09 01:35:35;;;;;;;4.78;4.05;;;19.50;99.90;;;;;;4985074;28;20383;-78
2022/06/09 01:38:09;;;;;;;4.35;3.78;;;19.40;99.90;;;;;;4988731;28;20033;-78
2022/06/09 01:40:36;;;;;;;3.92;3.58;;;19.30;99.90;;;;;;4992622;28;20833;-78
2022/06/09 01:43:08;;;;;;;4.10;3.70;;;19.20;99.90;;;;;;4975646;28;20471;-78
2022/06/09 01:45:55;;;;;;;4.68;3.47;;;19.10;99.90;;;;;;4971851;28;20041;-78
2022/06/09 01:48:25;;;;;;;3.60;3.30;;;19.00;99.90;;;;;;4976663;28;20031;-78
2022/06/09 01:51:08;;;;;;;4.85;3.00;;;18.80;99.90;;;;;;4988569;28;20018;-78
2022/06/09 01:53:40;;;;;;;6.47;3.38;;;18.80;99.90;;;;;;4982724;28;20026;-77
2022/06/09 01:56:30;;;;;;;7.05;2.92;;;18.70;99.90;;;;;;4975564;28;20083;-78
2022/06/09 01:59:21;;;;;;;3.60;2.78;;;18.50;99.90;;;;;;4989148;28;20104;-77
2022/06/09 02:01:56;;;;;;;3.45;2.65;;;18.40;99.90;;;;;;4984199;28;20045;-78
2022/06/09 02:04:32;;;;;;;2.75;2.25;;;18.30;99.90;;;;;;4973704;28;20510;-78
2022/06/09 02:07:06;;;;;;;2.70;2.17;;;18.10;99.90;;;;;;4983668;28;20479;-79
2022/06/09 02:09:33;;;;;;;2.72;1.77;;;18.00;99.90;;;;;;4959590;28;20054;-78
2022/06/09 02:12:10;;;;;;;3.10;1.80;;;17.90;99.90;;;;;;4988826;28;20026;-78
2022/06/09 02:14:38;;;;;;;;;;;17.90;99.90;;;;;;4991464;28;20054;-78
2022/06/09 02:17:08;;;;;;;2.80;1.50;;;17.90;99.90;;;;;;4972113;28;20011;-78
2022/06/09 02:19:39;;;;;;;3.85;1.80;;;17.80;99.90;;;;;;4987076;28;20050;-78
2022/06/09 02:22:08;;;;;;;1.63;1.48;;;17.80;99.90;;;;;;4965443;28;20161;-79
2022/06/09 02:24:41;;;;;;;1.30;1.20;;;17.70;99.90;;;;;;4961634;28;20025;-78
2022/06/09 02:27:10;;;;;;;2.95;1.42;;;17.60;99.90;;;;;;4988042;28;20026;-77
2022/06/09 02:29:40;;;;;;;3.53;1.20;;;17.60;99.90;;;;;;4980999;28;20022;-78
2022/06/09 02:32:06;;;;;;;2.00;1.35;;;17.60;99.90;;;;;;4987904;28;20076;-78
2022/06/09 02:34:34;;;;;;;1.25;1.02;;;17.50;99.90;;;;;;4966031;28;20049;-78
2022/06/09 02:37:02;;;;;;;5.72;1.10;;;17.60;99.90;;;;;;4976882;28;20028;-78
2022/06/09 02:39:29;;;;;;;4.82;1.25;;;17.60;99.90;;;;;;4993676;28;20022;-77
2022/06/09 02:41:55;;;;;;;1.40;1.30;;;17.50;99.90;;;;;;4964665;28;20015;-78
2022/06/09 02:44:25;;;;;;;1.37;0.87;;;17.50;99.90;;;;;;4997394;28;20037;-78
2022/06/09 02:46:52;;;;;;;1.75;1.08;;;17.40;99.90;;;;;;4981017;28;20771;-78
2022/06/09 02:49:21;;;;;;;1.48;1.02;;;17.40;99.90;;;;;;4987294;28;20026;-78
2022/06/09 02:51:47;;;;;;;1.17;1.02;;;17.30;99.90;;;;;;4988931;28;20551;-80
2022/06/09 02:54:15;;;;;;;2.63;1.08;;;17.30;99.90;;;;;;4972534;28;20121;-79
2022/06/09 02:56:44;;;;;;;2.10;0.93;;;17.20;99.90;;;;;;4971706;28;20061;-79
2022/06/09 02:59:11;;;;;;;1.52;1.10;;;17.20;99.90;;;;;;4969934;28;20010;-77
2022/06/09 03:01:43;;;;;;;1.38;1.27;;;17.10;99.90;;;;;;4982009;28;20106;-80
2022/06/09 03:04:09;;;;;;;2.03;1.20;;;17.00;99.90;;;;;;4985462;28;20101;-79
2022/06/09 03:06:35;;;;;;;2.25;1.02;;;17.00;99.90;;;;;;4969963;28;20084;-78
2022/06/09 03:09:03;;;;;;;3.00;1.30;;;16.90;99.90;;;;;;4969409;28;20030;-78
2022/06/09 03:11:37;;;;;;;1.00;0.85;;;16.90;99.90;;;;;;4984898;28;20033;-78
2022/06/09 03:14:08;;;;;;;1.65;0.80;;;16.90;99.90;;;;;;4963172;28;20052;-78
2022/06/09 03:16:34;;;;;;;2.75;1.00;;;16.80;99.90;;;;;;4986019;28;20072;-78
2022/06/09 03:19:04;;;;;;;1.38;1.08;;;16.80;99.90;;;;;;4981368;28;20537;-78
2022/06/09 03:21:41;;;;;;;3.33;1.10;;;16.70;99.90;;;;;;4966507;28;20061;-77
2022/06/09 03:24:06;;;;;;;1.20;0.85;;;16.70;99.90;;;;;;4971287;28;20560;-78
2022/06/09 03:26:35;;;;;;;1.73;0.90;;;16.70;99.90;;;;;;4969386;28;20029;-78
2022/06/09 03:29:12;;;;;;;3.03;1.50;;;16.70;99.90;;;;;;4971038;28;20265;-78
2022/06/09 03:31:44;;;;;;;2.15;0.90;;;16.60;99.90;;;;;;4966482;28;20037;-78
2022/06/09 03:34:12;;;;;;;2.42;1.13;;;16.60;99.90;;;;;;4972153;28;20497;-77
2022/06/09 03:36:37;;;;;;;2.08;0.88;;;16.50;99.90;;;;;;4961505;28;20026;-78
2022/06/09 03:39:03;;;;;;;0.90;0.90;;;16.50;99.90;;;;;;4983728;28;20018;-78
2022/06/09 03:41:29;;;;;;;0.75;0.70;;;16.60;99.90;;;;;;4965820;28;20253;-78
2022/06/09 03:43:59;;;;;;;1.20;1.13;;;16.50;99.90;;;;;;4962939;28;20050;-80
2022/06/09 03:46:24;;;;;;;1.67;0.95;;;16.40;99.90;;;;;;4975077;28;20017;-78
2022/06/09 03:48:53;;;;;;;3.03;1.00;;;16.40;99.90;;;;;;4959788;28;20172;-78
2022/06/09 03:51:23;;;;;;;1.70;0.90;;;16.40;99.90;;;;;;4987762;28;20100;-78
2022/06/09 03:53:50;;;;;;;1.40;1.10;;;16.40;99.90;;;;;;4971497;28;20050;-78
2022/06/09 03:56:20;;;;;;;6.22;1.10;;;16.40;99.90;;;;;;4968194;28;20022;-78
2022/06/09 03:58:47;;;;;;;1.85;0.90;;;16.40;99.90;;;;;;4966593;28;20031;-78
2022/06/09 04:01:24;;;;;;;2.35;0.90;;;16.40;99.90;;;;;;4971311;28;20022;-77
2022/06/09 04:03:50;;;;;;;1.00;0.95;;;16.50;99.90;;;;;;4986711;28;20807;-78
2022/06/09 04:06:21;;;;;;;0.87;0.80;;;16.60;99.90;;;;;;4964630;28;20034;-78
2022/06/09 04:09:05;;;;;;;1.17;0.93;;;16.60;99.90;;;;;;4961318;28;20022;-78
2022/06/09 04:11:34;;;;;;;0.82;0.80;;;16.60;99.90;;;;;;4976823;28;20018;-79
2022/06/09 04:14:00;;;;;;;0.82;0.73;;;16.40;99.90;;;;;;4972016;28;20041;-78
2022/06/09 04:16:29;;;;;;;2.78;1.10;;;16.50;99.90;;;;;;4976888;28;20053;-73
2022/06/09 04:18:59;;;;;;;2.03;0.90;;;16.70;99.90;;;;;;4974610;28;20558;-76
2022/06/09 04:21:27;;;;;;;1.23;1.10;;;17.00;99.90;;;;;;4967480;28;20515;-74
2022/06/09 04:23:54;;;;;;;2.20;1.05;;;17.10;99.90;;;;;;4964588;28;20031;-72
2022/06/09 04:26:23;;;;;;;1.55;1.10;;;17.20;99.90;;;;;;4995433;28;20034;-71
2022/06/09 04:28:49;;;;;;;7.95;1.10;;;17.30;99.90;;;;;;4969669;28;20021;-72
2022/06/09 04:31:18;;;;;;;2.53;0.90;;;17.30;99.90;;;;;;4974416;28;20108;-76
2022/06/09 04:33:45;;;;;;;0.80;0.80;;;17.40;99.90;;;;;;4968055;28;20574;-78
2022/06/09 04:36:14;;;;;;;0.85;0.73;;;17.30;99.90;;;;;;4999186;28;20032;-77
2022/06/09 04:38:41;;;;;;;1.30;0.90;;;17.20;99.90;;;;;;4984947;28;20032;-76
2022/06/09 04:41:10;;;;;;;1.23;1.08;;;17.00;99.90;;;;;;4981588;28;20018;-76
2022/06/09 04:43:40;;;;;;;2.97;1.00;;;16.80;99.90;;;;;;4973474;28;20053;-76
2022/06/09 04:46:20;;;;;;;3.67;1.30;;;16.70;99.90;;;;;;4990515;28;20022;-76
2022/06/09 04:48:49;;;;;;;1.15;1.02;;;16.50;99.90;;;;;;4983347;28;20026;-77
2022/06/09 04:51:20;;;;;;;3.33;0.82;;;16.60;99.90;;;;;;4973481;28;20030;-77
2022/06/09 04:53:50;;;;;;;2.45;1.20;;;16.50;99.90;;;;;;4979688;28;20030;-76
2022/06/09 04:56:21;;;;;;;2.28;1.33;;;16.40;99.90;;;;;;4971425;28;20329;-76
2022/06/09 04:58:48;;;;;;;1.75;1.00;;;16.40;99.90;;;;;;4971651;28;20022;-76
2022/06/09 05:01:24;;;;;;;1.27;0.95;;;16.40;99.90;;;;;;4994768;28;20470;-78
2022/06/09 05:03:51;;;;;;;2.00;0.88;;;16.40;99.90;;;;;;4988268;28;20018;-77
2022/06/09 05:06:19;;;;;;;;;;;16.40;99.90;;;;;;4972057;28;20768;-77
2022/06/09 05:08:47;;;;;;;2.13;1.20;;;16.30;99.90;;;;;;4984349;28;19920;-76
2022/06/09 05:11:13;;;;;;;1.20;1.10;;;16.30;99.90;;;;;;4995084;28;20144;-77
2022/06/09 05:13:39;;;;;;;1.00;1.00;;;16.20;99.90;;;;;;4988315;28;20037;-77
2022/06/09 05:16:07;;;;;;;2.10;1.30;;;16.20;99.90;;;;;;4971206;28;20022;-77
2022/06/09 05:18:38;;;;;;;2.42;1.30;;;16.20;99.90;;;;;;4988965;28;20021;-77
2022/06/09 05:21:10;;;;;;;2.65;1.38;;;16.20;99.90;;;;;;4984974;28;20476;-76
2022/06/09 05:23:41;;;;;;;1.33;1.23;;;16.20;99.90;;;;;;4976743;28;20398;-77
2022/06/09 05:26:07;;;;;;;1.92;1.33;;;16.20;99.90;;;;;;4973935;28;20023;-77
2022/06/09 05:28:34;;;;;;;1.45;1.10;;;16.20;99.90;;;;;;4986090;28;20022;-77
2022/06/09 05:31:07;;;;;;;;;;;16.30;99.90;;;;;;4988771;28;20044;-77
2022/06/09 05:33:34;;;;;;;2.22;1.10;;;16.30;99.90;;;;;;4967245;28;19909;-77
2022/06/09 05:36:01;;;;;;;;;;;16.30;99.90;;;;;;4982886;28;20168;-77
2022/06/09 05:46:53;;;;;;;3.50;1.45;;;16.10;99.90;;;;;;4982419;28;20126;-78
2022/06/09 05:49:23;;;;;;;1.30;1.20;;;16.10;99.90;;;;;;4990714;28;20400;-78
2022/06/09 05:51:52;;;;;;;2.58;1.30;;;16.20;99.90;;;;;;4970901;28;20028;-78
2022/06/09 05:54:19;;;;;;;1.38;1.00;;;16.10;99.90;;;;;;4986360;28;20022;-77
2022/06/09 05:56:46;;;;;;;2.88;1.50;;;16.20;99.90;;;;;;4971399;28;20041;-77
2022/06/09 05:59:15;;;;;;;3.38;1.30;;;16.20;99.90;;;;;;4978334;28;20026;-77
2022/06/09 06:01:41;;;;;;;2.17;1.48;;;16.20;99.90;;;;;;4970685;28;20031;-78
2022/06/09 06:04:09;;;;;;;1.90;1.50;;;16.20;99.90;;;;;;4989993;28;20556;-78
2022/06/09 06:06:35;;;;;;;1.17;1.13;;;16.10;99.90;;;;;;4987927;28;20044;-78
2022/06/09 06:09:08;;;;;;;1.40;1.30;;;16.30;99.90;;;;;;4961708;28;20052;-77
2022/06/09 06:11:36;;;;;;;1.58;1.30;;;16.30;99.90;;;;;;4987396;28;20476;-78
2022/06/09 06:14:08;;;;;;;1.52;1.42;;;16.30;99.90;;;;;;4970223;28;20033;-78
2022/06/09 06:16:38;;;;;;;1.52;1.27;;;16.40;99.90;;;;;;4971231;28;20109;-78
2022/06/09 06:19:09;;;;;;;1.80;1.23;;;16.60;99.90;;;;;;4981094;28;20022;-77
2022/06/09 06:21:45;;;;;;;1.30;1.02;;;16.70;99.90;;;;;;4969467;28;20318;-78
2022/06/09 06:24:12;;;;;;;2.05;1.20;;;16.70;99.90;;;;;;4964428;28;20057;-78
2022/06/09 06:26:45;;;;;;;2.05;1.20;;;16.80;99.90;;;;;;4985272;28;20038;-77
2022/06/09 06:29:15;;;;;;;1.40;1.25;;;16.90;99.90;;;;;;4968283;28;20026;-77
2022/06/09 06:31:43;;;;;;;2.88;1.25;;;16.90;99.90;;;;;;4980987;28;20034;-77
2022/06/09 06:34:09;;;;;;;1.30;1.20;;;16.90;99.90;;;;;;4981420;28;20026;-77
2022/06/09 06:36:38;;;;;;;5.95;1.60;;;17.00;99.90;;;;;;4976985;28;20030;-77
2022/06/09 06:39:12;;;;;;;1.70;1.25;;;17.00;99.90;;;;;;4967252;28;20064;-77
2022/06/09 06:41:39;;;;;;;4.10;1.10;;;17.10;99.90;;;;;;4971742;28;20018;-77
2022/06/09 06:44:06;;;;;;;1.80;1.00;;;17.10;99.90;;;;;;4981032;28;20018;-77
2022/06/09 06:46:36;;;;;;;1.40;1.27;;;17.30;99.90;;;;;;4985619;28;20046;-78
2022/06/09 06:49:11;;;;;;;1.77;1.20;;;17.40;99.90;;;;;;4962882;28;20117;-77
2022/06/09 06:51:45;;;;;;;0.93;0.93;;;17.50;99.90;;;;;;4973090;28;20025;-78
2022/06/09 06:54:11;;;;;;;3.00;1.10;;;17.60;99.90;;;;;;4984685;28;20497;-77
2022/06/09 06:56:40;;;;;;;1.60;1.27;;;17.60;99.90;;;;;;4972639;28;20050;-77
2022/06/09 06:59:06;;;;;;;1.63;1.00;;;17.60;99.90;;;;;;4981068;28;20026;-77
2022/06/09 07:01:35;;;;;;;1.10;0.93;;;17.70;99.90;;;;;;4986868;28;20088;-77
2022/06/09 07:04:05;;;;;;;1.63;1.38;;;17.80;99.90;;;;;;4970537;28;20642;-77
2022/06/09 07:06:32;;;;;;;1.10;0.80;;;17.90;99.90;;;;;;4985903;28;20117;-78
2022/06/09 07:08:58;;;;;;;2.08;1.00;;;17.90;99.90;;;;;;4988258;28;20372;-78
2022/06/09 07:11:24;;;;;;;1.42;1.10;;;17.80;99.90;;;;;;4973168;28;20023;-78
2022/06/09 07:13:50;;;;;;;3.70;1.10;;;17.70;99.90;;;;;;4965989;28;20388;-77
2022/06/09 07:16:16;;;;;;;1.30;1.13;;;17.70;99.90;;;;;;4970061;28;20053;-78
2022/06/09 07:18:51;;;;;;;2.85;1.10;;;17.60;99.90;;;;;;4969373;28;20030;-78
2022/06/09 07:21:17;;;;;;;2.55;1.17;;;17.60;99.90;;;;;;4987141;28;20034;-78
2022/06/09 07:23:45;;;;;;;1.75;0.98;;;17.50;99.90;;;;;;4968733;28;20569;-78
2022/06/09 07:26:11;;;;;;;1.67;0.88;;;17.50;99.90;;;;;;4951017;28;20109;-78
2022/06/09 07:28:38;;;;;;;1.25;1.15;;;17.50;99.90;;;;;;4970642;28;20116;-78
2022/06/09 07:31:05;;;;;;;1.65;1.13;;;17.60;99.90;;;;;;4994541;28;20030;-78
2022/06/09 07:33:35;;;;;;;1.27;1.17;;;17.60;99.90;;;;;;4960633;28;20057;-78
2022/06/09 07:36:01;;;;;;;1.13;1.02;;;17.60;99.90;;;;;;4970283;28;20049;-78
2022/06/09 07:38:33;;;;;;;1.65;1.20;;;17.60;99.90;;;;;;4984295;28;20030;-78
2022/06/09 07:41:03;;;;;;;1.15;0.82;;;17.60;99.90;;;;;;4985984;28;20032;-78
2022/06/09 07:43:34;;;;;;;2.67;1.15;;;17.60;99.90;;;;;;4961673;28;20033;-78
2022/06/09 07:46:04;;;;;;;2.30;1.15;;;17.60;99.90;;;;;;4990392;28;20058;-77
2022/06/09 07:48:32;;;;;;;1.17;1.10;;;17.60;99.90;;;;;;4983567;28;20109;-77
2022/06/09 07:51:02;;;;;;;0.95;0.95;;;17.50;99.90;;;;;;4979970;28;20037;-77
2022/06/09 07:53:29;;;;;;;1.85;1.30;;;17.40;99.90;;;;;;4974787;28;20022;-78
2022/06/09 07:55:56;;;;;;;1.20;1.10;;;17.50;99.90;;;;;;4979350;28;20032;-77
2022/06/09 07:58:22;;;;;;;1.65;1.30;;;17.40;99.90;;;;;;4978195;28;20808;-78
2022/06/09 08:00:49;;;;;;;1.80;1.10;;;17.40;99.90;;;;;;4978904;28;20101;-77
2022/06/09 08:03:20;;;;;;;1.10;1.00;;;17.40;99.90;;;;;;4970024;28;20149;-77
2022/06/09 08:05:49;;;;;;;3.78;1.23;;;17.50;99.90;;;;;;4968250;28;20109;-77
2022/06/09 08:08:15;;;;;;;2.70;1.20;;;17.50;99.90;;;;;;4987027;28;20030;-78
2022/06/09 08:10:45;;;;;;;4.07;1.40;;;17.50;99.90;;;;;;4983985;28;20061;-78
2022/06/09 08:13:12;;;;;;;2.28;1.60;;;17.60;99.90;;;;;;4955244;28;20037;-78
2022/06/09 08:15:51;;;;;;;2.20;1.10;;;17.70;99.90;;;;;;4971684;28;20035;-79
2022/06/09 08:18:23;;;;;;;1.00;0.90;;;17.80;99.90;;;;;;4985071;28;20066;-78
2022/06/09 08:20:48;;;;;;;1.75;1.30;;;17.70;99.90;;;;;;4966899;28;20091;-77
2022/06/09 08:23:22;;;;;;;1.10;1.00;;;17.70;99.90;;;;;;4981755;28;20042;-78
2022/06/09 08:25:49;;;;;;;1.95;1.10;;;17.70;99.90;;;;;;4989860;28;20030;-78
2022/06/09 08:28:18;;;;;;;1.35;1.20;;;17.70;99.90;;;;;;4995014;28;20030;-78
2022/06/09 08:30:46;;;;;;;1.50;1.30;;;17.70;99.90;;;;;;4962259;28;20035;-77
2022/06/09 08:33:13;;;;;;;1.30;1.20;;;17.70;99.90;;;;;;4984941;28;20025;-78
2022/06/09 08:35:39;;;;;;;1.10;1.00;;;17.60;99.90;;;;;;4971197;28;20217;-78
2022/06/09 08:38:07;;;;;;;0.95;0.95;;;17.60;99.90;;;;;;4986490;28;20037;-78
2022/06/09 08:40:40;;;;;;;1.60;1.40;;;17.60;99.90;;;;;;4972581;28;20494;-77
2022/06/09 08:43:17;;;;;;;1.88;1.42;;;17.50;99.90;;;;;;4974399;28;20068;-78
2022/06/09 08:45:48;;;;;;;;;;;17.40;99.90;;;;;;4966121;28;20027;-78
2022/06/09 08:48:21;;;;;;;1.95;1.40;;;17.40;99.90;;;;;;4987700;28;19901;-78
2022/06/09 08:50:52;;;;;;;2.03;1.75;;;17.30;99.90;;;;;;4985866;28;20085;-78
2022/06/09 08:53:25;;;;;;;1.63;1.30;;;17.20;99.90;;;;;;4984876;28;20026;-78
2022/06/09 08:55:57;;;;;;;1.48;1.20;;;17.20;99.90;;;;;;4970899;28;20026;-78
2022/06/09 08:58:55;;;;;;;1.33;0.90;;;17.20;99.90;;;;;;4975364;28;20018;-78
2022/06/09 09:01:24;;;;;;;1.20;1.08;;;17.20;99.90;;;;;;4989275;28;20040;-78
2022/06/09 09:03:57;;;;;;;1.42;1.33;;;17.30;99.90;;;;;;4969399;28;20109;-78
2022/06/09 09:06:39;;;;;;;1.48;1.33;;;17.40;99.90;;;;;;4968409;28;20029;-78
2022/06/09 09:09:29;;;;;;;1.98;1.23;;;17.40;99.90;;;;;;4979636;28;20023;-77
2022/06/09 09:12:12;;;;;;;2.75;1.30;;;17.50;99.90;;;;;;4967899;28;20033;-78
2022/06/09 09:15:10;;;;;;;1.80;1.05;;;17.60;99.90;;;;;;4986400;28;20503;-77
2022/06/09 09:18:15;;;;;;;1.00;0.90;;;17.70;99.90;;;;;;4944246;28;20113;-78
2022/06/09 09:21:05;;;;;;;1.35;1.30;;;17.70;99.90;;;;;;4972869;28;20137;-78
2022/06/09 09:24:19;;;;;;;1.45;1.35;;;17.60;99.90;;;;;;4968322;28;20033;-77
2022/06/09 09:27:13;;;;;;;2.08;1.60;;;17.70;99.90;;;;;;4968607;28;20048;-77
2022/06/09 09:30:02;;;;;;;1.52;1.42;;;17.60;99.90;;;;;;4970590;28;20030;-77
2022/06/09 09:32:34;;;;;;;2.65;1.23;;;17.60;99.90;;;;;;4963840;28;20476;-77
2022/06/09 09:35:00;;;;;;;2.67;1.40;;;17.50;99.90;;;;;;4982680;28;20031;-77
2022/06/09 09:37:46;;;;;;;1.42;1.30;;;17.40;99.90;;;;;;4971568;28;20499;-78
2022/06/09 09:40:29;;;;;;;1.52;1.40;;;17.30;99.90;;;;;;4969179;28;20078;-78
2022/06/09 09:49:44;;;;;;;1.20;1.10;;;17.60;99.90;;;;;;4984585;28;20467;-78
2022/06/09 09:52:49;;;;;;;1.50;1.40;;;17.60;99.90;;;;;;4971900;28;20076;-78
2022/06/09 09:56:00;;;;;;;1.50;1.25;;;17.70;99.90;;;;;;4960714;28;20035;-77
2022/06/09 09:58:39;;;;;;;2.08;1.40;;;17.80;99.90;;;;;;4940111;28;20042;-77
2022/06/09 10:01:17;;;;;;;1.30;1.20;;;18.00;99.90;;;;;;4983137;28;20037;-77
2022/06/09 10:09:52;;;;;;;2.00;1.30;;;18.30;99.90;;;;;;4978586;28;20538;-77
2022/06/09 10:12:27;;;;;;;1.52;1.42;;;18.50;99.90;;;;;;4974226;28;20027;-77
2022/06/09 10:15:12;;;;;;;1.20;1.10;;;18.70;99.90;;;;;;4972272;28;20018;-77
2022/06/09 10:17:44;;;;;;;0.90;0.82;;;18.80;99.90;;;;;;4966950;28;20049;-77
2022/06/09 10:20:29;;;;;;;1.63;1.17;;;19.00;99.90;;;;;;4990524;28;20018;-78
2022/06/09 10:23:16;;;;;;;0.90;0.90;;;19.20;99.90;;;;;;4978987;28;20071;-77
2022/06/09 10:26:18;;;;;;;1.25;1.08;;;19.40;99.90;;;;;;4969096;28;20037;-77
2022/06/09 10:29:14;;;;;;;3.45;1.08;;;19.40;99.90;;;;;;4968420;28;21019;-78
2022/06/09 10:31:59;;;;;;;1.27;0.80;;;19.50;99.90;;;;;;4984695;28;20834;-77
2022/06/09 10:34:43;;;;;;;0.85;0.80;;;19.50;99.90;;;;;;4988099;28;20395;-76
2022/06/09 10:37:40;;;;;;;1.98;0.88;;;19.50;99.90;;;;;;4964729;28;20724;-77
2022/06/09 10:40:56;;;;;;;1.10;1.00;;;19.60;99.90;;;;;;4966759;28;20053;-78
2022/06/09 10:43:50;;;;;;;2.65;0.90;;;19.70;99.90;;;;;;4913424;29;20055;-77
2022/06/09 10:46:27;;;;;;;1.88;0.95;;;19.80;99.90;;;;;;4986507;28;20042;-77
2022/06/09 10:55:24;;;;;;;0.77;0.77;;;19.80;99.90;;;;;;4982838;28;20169;-77
2022/06/09 10:58:11;;;;;;;0.88;0.80;;;19.70;99.90;;;;;;4981523;28;20013;-77
2022/06/09 11:00:48;;;;;;;1.50;1.10;;;19.70;99.90;;;;;;4965157;28;20571;-77
2022/06/09 11:03:27;;;;;;;0.88;0.88;;;19.60;99.90;;;;;;4987586;28;20038;-76
2022/06/09 11:06:27;;;;;;;1.25;0.77;;;19.60;99.90;;;;;;4968410;28;20019;-77
2022/06/09 11:09:12;;;;;;;2.25;0.65;;;19.60;99.90;;;;;;4993844;28;20037;-76
2022/06/09 11:11:52;;;;;;;1.15;0.85;;;19.60;99.90;;;;;;4988822;28;20026;-77
2022/06/09 11:14:41;;;;;;;0.90;0.90;;;19.50;99.90;;;;;;4968081;28;20030;-76
2022/06/09 11:17:38;;;;;;;1.50;0.98;;;19.40;99.90;;;;;;4990000;28;20065;-77
2022/06/09 11:20:15;;;;;;;0.85;0.85;;;19.20;99.90;;;;;;4977736;28;20041;-76
2022/06/09 11:23:02;;;;;;;;;;;19.10;99.90;;;;;;4963865;28;20038;-77
2022/06/09 11:25:48;;;;;;;0.98;0.80;;;19.00;99.90;;;;;;4981339;28;19912;-77
2022/06/09 11:28:57;;;;;;;1.98;0.75;;;18.90;99.90;;;;;;4975343;28;20038;-77
2022/06/09 11:31:39;;;;;;;1.55;0.80;;;18.80;99.90;;;;;;4956748;28;20038;-76
2022/06/09 11:34:28;;;;;;;0.90;0.80;;;18.80;99.90;;;;;;4989397;28;20024;-76
2022/06/09 11:37:51;;;;;;;1.33;0.90;;;18.90;99.90;;;;;;4964114;28;20033;-76
2022/06/09 11:40:50;;;;;;;1.23;0.60;;;18.90;99.90;;;;;;4907928;29;20111;-76
2022/06/09 11:43:55;;;;;;;1.10;0.93;;;19.00;99.90;;;;;;4837267;29;20103;-76
2022/06/09 11:46:49;;;;;;;2.15;1.10;;;19.00;99.90;;;;;;4873579;29;20044;-76
2022/06/09 11:49:44;;;;;;;0.70;0.68;;;18.90;99.90;;;;;;4906214;29;20203;-77
2022/06/09 11:52:33;;;;;;;1.20;1.00;;;18.90;99.90;;;;;;4908047;29;20860;-76
2022/06/09 11:55:25;;;;;;;1.77;0.88;;;18.90;99.90;;;;;;4908911;29;20115;-76
2022/06/09 11:57:53;;;;;;;0.75;0.75;;;19.00;99.90;;;;;;4906808;29;20097;-77
2022/06/09 12:00:26;;;;;;;0.80;0.80;;;19.10;99.90;;;;;;4950233;28;20066;-77
2022/06/09 12:03:15;;;;;;;0.80;0.80;;;19.10;99.90;;;;;;4972006;28;20023;-77
2022/06/09 12:06:19;;;;;;;1.02;0.82;;;19.20;99.90;;;;;;4968826;28;20392;-76
2022/06/09 12:09:25;;;;;;;1.15;0.73;;;19.20;99.90;;;;;;4963511;28;20030;-77
2022/06/09 12:11:59;;;;;;;1.30;1.05;;;19.30;99.90;;;;;;4971834;28;20503;-77
2022/06/09 12:14:29;;;;;;;0.80;0.80;;;19.30;99.90;;;;;;4991131;28;20494;-76
2022/06/09 12:17:12;;;;;;;1.85;0.85;;;19.30;99.90;;;;;;4973380;28;20117;-76
2022/06/09 12:19:53;;;;;;;1.10;0.95;;;19.30;99.90;;;;;;4977996;28;20026;-74
2022/06/09 12:22:47;;;;;;;0.80;0.80;;;19.20;99.90;;;;;;4971047;28;20033;-74
2022/06/09 12:25:17;;;;;;;1.05;0.80;;;19.30;99.90;;;;;;4964570;28;20026;-74
2022/06/09 12:27:52;;;;;;;0.85;0.85;;;19.40;99.90;;;;;;4984216;28;20117;-75
2022/06/09 12:30:25;;;;;;;0.90;0.90;;;19.50;99.90;;;;;;4968791;28;20041;-75
2022/06/09 12:33:13;;;;;;;1.33;0.93;;;19.50;99.90;;;;;;4964659;28;20037;-75
2022/06/09 12:35:59;;;;;;;1.88;1.00;;;19.50;99.90;;;;;;4975847;28;20018;-74
2022/06/09 12:38:51;;;;;;;0.70;0.70;;;19.50;99.90;;;;;;4989717;28;20325;-73
2022/06/09 12:41:37;;;;;;;1.00;0.90;;;19.60;99.90;;;;;;4991700;28;20026;-74
2022/06/09 12:44:23;;;;;;;1.75;1.30;;;19.60;99.90;;;;;;4962853;28;20027;-74
2022/06/09 12:47:15;;;;;;;2.60;1.67;;;19.60;99.90;;;;;;4967777;28;20026;-74
2022/06/09 12:49:42;;;;;;;2.40;1.35;;;19.50;99.90;;;;;;4963502;28;20087;-74
2022/06/09 12:52:39;;;;;;;3.80;2.30;;;19.60;99.90;;;;;;4968038;28;20031;-74
2022/06/09 12:55:19;;;;;;;2.30;1.20;;;19.60;99.90;;;;;;4974518;28;20096;-74
2022/06/09 12:57:48;;;;;;;1.38;1.27;;;19.50;99.90;;;;;;4989005;28;20035;-75
2022/06/09 13:00:14;;;;;;;1.67;1.20;;;19.40;99.90;;;;;;4991817;28;20121;-75
2022/06/09 13:02:43;;;;;;;1.17;1.00;;;19.30;99.90;;;;;;4973444;28;20117;-74
2022/06/09 13:05:15;;;;;;;0.98;0.93;;;19.20;99.90;;;;;;4988992;28;20036;-74
2022/06/09 13:07:52;;;;;;;3.20;1.23;;;19.10;99.90;;;;;;4965550;28;20053;-75
2022/06/09 13:10:38;;;;;;;2.15;1.13;;;19.10;99.90;;;;;;4991448;28;20026;-74
2022/06/09 13:13:38;;;;;;;2.10;1.33;;;19.00;99.90;;;;;;4970254;28;20048;-74
2022/06/09 13:16:17;;;;;;;1.10;1.00;;;19.00;99.90;;;;;;4973577;28;20050;-74
2022/06/09 13:18:54;;;;;;;1.52;1.15;;;18.90;99.90;;;;;;4971250;28;20029;-75
2022/06/09 13:21:41;;;;;;;1.00;0.90;;;18.90;99.90;;;;;;4992788;28;20023;-75
2022/06/09 13:24:26;;;;;;;1.83;1.02;;;18.80;99.90;;;;;;4991769;28;20030;-75
2022/06/09 13:26:53;;;;;;;2.15;1.30;;;18.80;99.90;;;;;;4971040;28;20027;-74
2022/06/09 13:29:38;;;;;;;2.38;1.50;;;18.70;99.90;;;;;;4994078;28;20018;-74
2022/06/09 13:32:19;;;;;;;1.55;1.35;;;18.70;99.90;;;;;;4980349;28;20022;-75
2022/06/09 13:34:50;;;;;;;3.15;1.50;;;18.70;99.90;;;;;;4971451;28;20037;-75
2022/06/09 13:37:34;;;;;;;2.42;1.45;;;18.70;99.90;;;;;;4989802;28;20058;-73
2022/06/09 13:40:12;;;;;;;1.42;1.33;;;18.70;99.90;;;;;;4984447;28;20017;-73
2022/06/09 13:42:59;;;;;;;1.98;1.40;;;18.80;99.90;;;;;;4967855;28;20110;-73
2022/06/09 13:45:33;;;;;;;1.83;1.27;;;18.90;99.90;;;;;;4990895;28;20014;-73
2022/06/09 13:48:05;;;;;;;1.67;1.20;;;18.90;99.90;;;;;;4985638;28;20096;-72
2022/06/09 13:50:38;;;;;;;1.00;0.93;;;19.00;99.90;;;;;;4975995;28;20026;-73
2022/06/09 13:53:39;;;;;;;1.52;1.20;;;19.10;99.90;;;;;;4988965;28;20030;-73
2022/06/09 13:56:10;;;;;;;1.33;1.20;;;19.00;99.90;;;;;;4966579;28;20146;-73
2022/06/09 13:58:36;;;;;;;1.67;1.05;;;19.00;99.90;;;;;;4988070;28;20480;-73
2022/06/09 14:01:05;;;;;;;1.48;0.90;;;18.80;99.90;;;;;;4971537;28;20018;-73